Time;durP1;ratioP1;P1;durP2;ratioP2;P2;SDS_P1;SDS_P2;PMS_P1;PMS_P2;Temp;Humidity;BMP_temperature;BMP_pressure;BME280_temperature;BME280_humidity;BME280_pressure;Samples;Min_cycle;Max_cycle;Signal;HPM_P1;HPM_P2
2022/04/22 00:00:00;;;;;;;9.73;4.53;;;;;;;11.85;62.88;101022.31;5014239;28;20026;-46
2022/04/22 00:02:25;;;;;;;7.18;4.45;;;;;;;11.79;63.55;101017.88;5014240;28;20100;-47
2022/04/22 00:04:51;;;;;;;8.52;4.28;;;;;;;11.86;63.32;101011.00;5014371;28;20034;-47
2022/04/22 00:07:16;;;;;;;7.97;4.22;;;;;;;11.95;62.81;101017.63;5014307;28;20076;-46
2022/04/22 00:09:41;;;;;;;8.32;4.20;;;;;;;11.74;63.80;101020.25;5014243;28;20030;-46
2022/04/22 00:12:07;;;;;;;7.53;4.40;;;;;;;11.65;64.21;101019.59;5014308;28;20022;-46
2022/04/22 00:14:33;;;;;;;8.60;4.45;;;;;;;11.71;64.10;101024.03;5014083;28;20073;-46
2022/04/22 00:16:58;;;;;;;6.95;4.50;;;;;;;11.52;64.39;101019.47;5014148;28;20065;-46
2022/04/22 00:19:23;;;;;;;8.50;4.45;;;;;;;11.57;64.24;101016.34;5014623;28;20068;-45
2022/04/22 00:21:48;;;;;;;6.70;4.60;;;;;;;11.55;64.74;101020.91;5014435;28;20096;-46
2022/04/22 00:24:15;;;;;;;8.95;4.53;;;;;;;11.53;65.02;101024.44;5014084;28;20465;-47
2022/04/22 00:26:41;;;;;;;8.95;4.90;;;;;;;11.61;64.63;101025.31;5014312;28;20025;-48
2022/04/22 00:29:07;;;;;;;7.55;4.60;;;;;;;11.68;64.11;101013.22;4996391;28;20025;-47
2022/04/22 00:31:32;;;;;;;9.18;4.50;;;;;;;11.60;64.57;101016.75;5013635;28;20048;-54
2022/04/22 00:33:58;;;;;;;8.77;4.65;;;;;;;11.56;64.37;101022.50;5013736;28;20437;-46
2022/04/22 00:36:23;;;;;;;13.13;5.10;;;;;;;11.52;64.77;101017.69;5013530;28;20480;-46
2022/04/22 00:38:49;;;;;;;9.45;5.18;;;;;;;11.48;64.98;101013.88;5013476;28;20034;-46
2022/04/22 00:41:14;;;;;;;9.85;4.78;;;;;;;11.56;64.92;101010.34;5013499;28;20113;-47
2022/04/22 00:43:50;;;;;;;11.80;4.82;;;;;;;11.36;65.52;101007.59;5013848;28;20481;-47
2022/04/22 00:46:17;;;;;;;12.30;4.40;;;;;;;11.56;65.42;101012.94;5014338;28;20389;-47
2022/04/22 00:48:43;;;;;;;7.50;4.70;;;;;;;11.47;65.29;101008.88;5013708;28;20057;-44
2022/04/22 00:51:10;;;;;;;9.00;4.38;;;;;;;11.44;65.05;100998.91;5013634;28;20053;-48
2022/04/22 00:53:41;;;;;;;10.40;4.90;;;;;;;11.47;65.36;101001.13;5013600;28;20084;-46
2022/04/22 00:56:10;;;;;;;7.53;4.78;;;;;;;11.35;65.51;100992.28;5013773;28;20021;-46
2022/04/22 00:58:40;;;;;;;8.85;4.75;;;;;;;11.35;65.85;100993.06;5013589;28;20508;-46
2022/04/22 01:01:06;;;;;;;12.00;4.97;;;;;;;11.22;66.15;100987.75;5013508;28;20109;-47
2022/04/22 01:03:32;;;;;;;11.98;4.75;;;;;;;11.37;65.49;100977.38;5013437;28;20037;-45
2022/04/22 01:11:32;;;;;;;9.35;5.25;;;;;;;11.26;66.68;100966.53;5014302;28;20447;-47
2022/04/22 01:13:59;;;;;;;9.57;4.70;;;;;;;11.24;66.57;100963.31;5013368;28;20066;-46
2022/04/22 01:16:25;;;;;;;7.28;4.88;;;;;;;11.29;66.42;100971.31;5013292;28;20105;-47
2022/04/22 01:18:51;;;;;;;10.50;5.15;;;;;;;11.13;66.95;100969.00;4995769;28;20413;-48
2022/04/22 01:21:17;;;;;;;8.43;4.78;;;;;;;11.17;67.35;100967.66;5013883;28;20084;-47
2022/04/22 01:23:42;;;;;;;10.55;4.82;;;;;;;11.26;67.08;100966.53;5013326;28;20469;-47
2022/04/22 01:26:08;;;;;;;10.82;4.60;;;;;;;11.32;67.11;100962.38;5013750;28;20029;-48
2022/04/22 01:28:34;;;;;;;8.90;4.95;;;;;;;11.33;67.85;100958.81;5013287;28;20541;-48
2022/04/22 01:30:59;;;;;;;8.77;4.75;;;;;;;11.25;68.50;100967.53;5013192;28;20469;-47
2022/04/22 01:33:25;;;;;;;10.07;4.70;;;;;;;11.32;69.13;100953.84;5013596;28;20026;-47
2022/04/22 01:35:50;;;;;;;12.60;5.15;;;;;;;11.32;69.22;100954.63;5013041;28;20531;-48
2022/04/22 01:38:15;;;;;;;7.68;4.60;;;;;;;11.38;70.08;100958.25;5013343;28;20026;-48
2022/04/22 01:40:41;;;;;;;11.73;5.15;;;;;;;11.30;70.87;100946.25;5013471;28;20026;-47
2022/04/22 01:43:06;;;;;;;7.75;4.72;;;;;;;11.28;71.29;100951.63;4995546;28;20105;-47
2022/04/22 01:45:32;;;;;;;8.98;4.55;;;;;;;11.39;70.91;100950.28;5013042;28;20112;-47
2022/04/22 01:47:57;;;;;;;8.50;4.95;;;;;;;11.20;72.28;100959.50;5013202;28;20018;-47
2022/04/22 01:50:23;;;;;;;8.13;4.90;;;;;;;11.23;72.50;100961.72;5013266;28;20064;-47
2022/04/22 01:52:49;;;;;;;7.85;4.25;;;;;;;11.31;72.53;100955.63;5013027;28;20155;-48
2022/04/22 01:55:14;;;;;;;8.70;4.90;;;;;;;11.24;72.95;100955.56;5013192;28;20026;-47
2022/04/22 01:57:39;;;;;;;7.00;5.00;;;;;;;11.16;73.66;100947.91;5012956;28;20052;-46
2022/04/22 02:00:06;;;;;;;12.57;4.50;;;;;;;11.15;73.80;100954.09;5013270;28;20042;-47
2022/04/22 02:02:31;;;;;;;7.88;4.50;;;;;;;10.99;75.04;100951.75;5012952;28;20097;-47
2022/04/22 02:04:57;;;;;;;6.07;4.50;;;;;;;10.93;75.51;100945.53;5012965;28;20057;-46
2022/04/22 02:07:22;;;;;;;8.07;4.32;;;;;;;11.02;75.18;100943.66;5012912;28;20028;-47
2022/04/22 02:09:47;;;;;;;8.73;4.68;;;;;;;11.16;74.79;100953.09;5014380;28;20121;-46
2022/04/22 02:12:13;;;;;;;8.90;4.53;;;;;;;11.20;74.66;100943.19;4998927;28;20053;-53
2022/04/22 02:14:38;;;;;;;7.75;4.53;;;;;;;11.20;75.19;100951.75;5016521;28;20096;-48
2022/04/22 02:17:04;;;;;;;6.45;4.30;;;;;;;11.04;75.47;100949.41;5016378;28;20473;-47
2022/04/22 02:19:29;;;;;;;7.30;4.22;;;;;;;10.93;75.92;100945.53;5016294;28;20030;-47
2022/04/22 02:21:54;;;;;;;7.85;4.50;;;;;;;11.09;75.45;100949.66;4998738;28;20084;-47
2022/04/22 02:24:19;;;;;;;8.60;4.43;;;;;;;11.11;75.73;100937.34;5016345;28;20026;-49
2022/04/22 02:29:29;;;;;;;8.88;3.95;;;;;;;11.16;75.33;100942.75;5016445;28;20104;-47
2022/04/22 02:31:54;;;;;;;8.70;4.25;;;;;;;11.14;75.29;100941.38;5016426;28;20022;-46
2022/04/22 02:34:21;;;;;;;7.38;4.05;;;;;;;10.98;75.71;100937.22;5016064;28;20026;-47
2022/04/22 02:36:47;;;;;;;6.43;4.15;;;;;;;10.83;76.52;100934.72;5015981;28;20034;-48
2022/04/22 02:39:12;;;;;;;8.23;4.28;;;;;;;10.70;76.78;100940.53;5015981;28;20060;-48
2022/04/22 02:47:05;;;;;;;6.93;4.28;;;;;;;10.92;76.47;100946.53;5015928;28;20040;-48
2022/04/22 02:49:31;;;;;;;8.00;4.72;;;;;;;10.64;77.52;100945.66;5016025;28;20025;-47
2022/04/22 02:51:56;;;;;;;11.07;4.80;;;;;;;10.79;77.47;100944.63;5016000;28;20113;-46
2022/04/22 02:54:21;;;;;;;8.82;5.20;;;;;;;10.61;78.05;100936.47;5015734;28;20380;-47
2022/04/22 02:56:50;;;;;;;11.02;5.05;;;;;;;10.44;78.81;100937.69;5015632;28;20026;-47
2022/04/22 02:59:16;;;;;;;12.95;4.82;;;;;;;10.44;79.05;100935.09;5015656;28;20042;-47
2022/04/22 03:01:43;;;;;;;8.82;5.35;;;;;;;10.24;79.77;100925.31;5016024;28;20033;-47
2022/04/22 03:04:09;;;;;;;12.68;6.10;;;;;;;10.35;79.16;100924.88;4998388;28;20029;-48
2022/04/22 03:06:34;;;;;;;10.68;5.25;;;;;;;10.34;79.05;100927.66;5015775;28;20109;-47
2022/04/22 03:08:59;;;;;;;9.95;5.97;;;;;;;10.23;80.10;100918.53;5015399;28;20060;-48
2022/04/22 03:11:25;;;;;;;8.40;5.53;;;;;;;10.38;78.71;100923.69;5015663;28;20049;-47
2022/04/22 03:13:51;;;;;;;11.80;5.43;;;;;;;10.19;79.31;100927.66;5015312;28;20085;-46
2022/04/22 03:16:22;;;;;;;12.35;5.68;;;;;;;10.15;79.54;100926.38;5015244;28;20030;-47
2022/04/22 03:18:48;;;;;;;10.05;5.93;;;;;;;10.27;78.88;100927.56;4997889;28;20389;-47
2022/04/22 03:21:13;;;;;;;12.70;5.50;;;;;;;10.15;79.23;100921.22;5012953;28;20034;-47
2022/04/22 03:23:38;;;;;;;10.05;5.85;;;;;;;10.14;79.36;100935.91;4997593;28;20373;-46
2022/04/22 03:26:04;;;;;;;15.23;6.05;;;;;;;10.12;79.50;100926.75;5015382;28;20021;-47
2022/04/22 03:28:29;;;;;;;9.60;6.10;;;;;;;10.08;79.65;100939.22;5015084;28;20033;-48
2022/04/22 03:30:54;;;;;;;8.25;5.53;;;;;;;10.00;79.47;100931.56;5015382;28;20397;-47
2022/04/22 03:33:19;;;;;;;9.98;6.18;;;;;;;9.86;79.91;100935.75;5014965;28;20057;-46
2022/04/22 03:35:50;;;;;;;9.20;5.80;;;;;;;9.98;79.39;100932.72;5015446;28;20101;-46
2022/04/22 03:38:15;;;;;;;13.23;6.15;;;;;;;10.06;79.38;100917.94;5014826;28;20049;-48
2022/04/22 03:40:41;;;;;;;9.80;5.97;;;;;;;10.00;80.13;100916.06;5015099;28;20092;-46
2022/04/22 03:43:06;;;;;;;8.60;5.72;;;;;;;9.82;80.25;100923.41;5014742;28;20422;-47
2022/04/22 03:45:32;;;;;;;7.53;5.43;;;;;;;9.98;79.98;100919.81;5014663;28;20014;-47
2022/04/22 03:47:58;;;;;;;10.73;6.30;;;;;;;9.78;79.95;100912.63;5014961;28;20109;-47
2022/04/22 03:50:25;;;;;;;12.65;6.97;;;;;;;9.84;79.88;100922.25;5014725;28;20029;-47
2022/04/22 03:52:50;;;;;;;10.27;6.40;;;;;;;9.93;79.99;100925.53;5014892;28;20026;-50
2022/04/22 03:55:15;;;;;;;12.30;5.70;;;;;;;9.90;80.51;100926.69;5015332;28;20084;-47
2022/04/22 04:00:24;;;;;;;10.85;6.72;;;;;;;9.80;80.18;100920.97;5014794;28;20036;-46
2022/04/22 04:02:49;;;;;;;11.38;6.22;;;;;;;9.80;80.48;100920.97;5014701;28;20038;-46
2022/04/22 04:05:15;;;;;;;8.20;6.05;;;;;;;9.64;80.50;100916.00;5014491;28;20025;-46
2022/04/22 04:07:41;;;;;;;8.57;6.18;;;;;;;9.78;80.15;100915.22;5014607;28;20022;-47
2022/04/22 04:18:19;;;;;;;11.30;6.18;;;;;;;9.55;81.14;100922.22;4975756;28;20066;-47
2022/04/22 04:23:27;;;;;;;8.90;6.57;;;;;;;9.75;80.53;100918.13;4974489;28;20049;-47
2022/04/22 04:25:53;;;;;;;10.60;6.68;;;;;;;9.74;80.17;100918.31;4975024;28;20389;-47
2022/04/22 04:28:18;;;;;;;10.02;6.68;;;;;;;9.65;81.00;100922.75;4975001;28;20031;-46
2022/04/22 04:30:44;;;;;;;14.90;6.78;;;;;;;9.62;80.73;100910.22;4975824;28;20027;-48
2022/04/22 04:33:10;;;;;;;13.25;6.88;;;;;;;9.71;80.69;100916.88;4975061;28;20113;-48
2022/04/22 04:35:37;;;;;;;11.95;7.35;;;;;;;9.59;81.08;100906.22;4975129;28;20106;-47
2022/04/22 04:38:03;;;;;;;10.57;6.75;;;;;;;9.57;81.26;100909.94;4975128;28;20037;-48
2022/04/22 04:40:28;;;;;;;12.32;7.07;;;;;;;9.69;81.06;100918.84;4975108;28;20050;-48
2022/04/22 04:42:54;;;;;;;13.32;7.60;;;;;;;9.67;81.31;100910.50;4975360;28;20036;-47
2022/04/22 04:45:20;;;;;;;12.35;8.00;;;;;;;9.69;81.13;100914.47;4974753;28;20025;-48
2022/04/22 04:47:45;;;;;;;16.23;8.38;;;;;;;9.71;80.76;100909.16;4975283;28;20351;-48
2022/04/22 04:50:12;;;;;;;13.88;7.50;;;;;;;9.71;80.83;100912.53;4975260;28;20089;-48
2022/04/22 04:52:38;;;;;;;14.35;8.13;;;;;;;9.64;80.90;100918.59;4974905;28;20070;-48
2022/04/22 04:55:08;;;;;;;14.50;8.32;;;;;;;9.80;80.81;100920.97;4974580;28;20466;-47
2022/04/22 04:57:34;;;;;;;14.75;8.35;;;;;;;9.76;81.04;100918.94;4974688;28;20027;-48
2022/04/22 05:00:00;;;;;;;12.25;8.40;;;;;;;9.70;80.72;100915.31;4973308;28;20035;-47
2022/04/22 05:02:25;;;;;;;16.10;8.55;;;;;;;9.71;80.29;100917.69;4975222;28;20023;-51
2022/04/22 05:04:51;;;;;;;15.65;9.15;;;;;;;9.79;80.44;100916.81;4974906;28;20088;-47
2022/04/22 05:07:17;;;;;;;20.80;8.30;;;;;;;9.54;81.20;100911.09;4974665;28;20516;-47
2022/04/22 05:09:42;;;;;;;16.00;9.18;;;;;;;9.69;80.92;100918.84;4974467;28;20026;-47
2022/04/22 05:12:10;;;;;;;16.63;9.82;;;;;;;9.67;80.61;100919.03;4974683;28;20033;-46
2022/04/22 05:14:35;;;;;;;22.20;10.52;;;;;;;9.85;80.10;100913.50;5002313;28;20046;-46
2022/04/22 05:17:01;;;;;;;15.93;9.15;;;;;;;9.81;79.95;100912.28;5013294;28;20030;-46
2022/04/22 05:19:26;;;;;;;19.38;10.32;;;;;;;9.99;79.46;100919.66;5013382;28;20022;-47
2022/04/22 05:21:52;;;;;;;16.67;9.52;;;;;;;9.94;79.92;100914.22;4996286;28;20125;-46
2022/04/22 05:24:17;;;;;;;16.42;9.82;;;;;;;9.81;79.68;100916.63;5013616;28;20037;-47
2022/04/22 05:26:42;;;;;;;17.48;10.10;;;;;;;9.94;79.61;100922.75;5013527;28;20036;-47
2022/04/22 05:32:36;;;;;;;19.27;10.80;;;;;;;10.13;79.02;100923.22;5013343;28;20350;-47
2022/04/22 05:34:37;;;;;;;19.80;10.70;;;;;;;9.94;79.44;100927.13;5012386;28;20036;-47
2022/04/22 05:37:02;;;;;;;22.35;12.05;;;;;;;10.05;78.87;100928.47;4995501;28;20030;-48
2022/04/22 05:39:28;;;;;;;20.95;11.43;;;;;;;10.22;78.20;100921.31;5013063;28;20366;-48
2022/04/22 05:41:53;;;;;;;23.60;11.80;;;;;;;10.02;78.18;100929.63;5013242;28;20114;-47
2022/04/22 05:44:18;;;;;;;23.92;11.50;;;;;;;9.93;79.79;100920.38;5013765;28;20025;-47
2022/04/22 05:46:43;;;;;;;22.77;11.98;;;;;;;10.24;78.55;100927.09;5017696;28;20034;-45
2022/04/22 05:49:09;;;;;;;22.35;12.27;;;;;;;10.31;77.45;100926.22;5016901;28;20037;-53
2022/04/22 05:51:34;;;;;;;23.40;12.25;;;;;;;10.20;78.74;100926.66;5016952;28;20037;-45
2022/04/22 05:53:59;;;;;;;21.88;11.27;;;;;;;10.54;77.06;100920.13;5016979;28;20532;-46
2022/04/22 05:56:24;;;;;;;23.85;11.95;;;;;;;10.75;75.66;100921.91;5016763;28;20037;-46
2022/04/22 05:58:50;;;;;;;29.13;11.45;;;;;;;12.50;70.79;100919.19;5016834;28;20014;-53
2022/04/22 06:01:15;;;;;;;19.77;10.40;;;;;;;14.89;59.61;100928.28;5016771;28;20030;-46
2022/04/22 06:03:40;;;;;;;17.30;10.10;;;;;;;16.13;55.60;100929.06;5016747;28;20033;-47
2022/04/22 06:06:06;;;;;;;20.13;10.82;;;;;;;16.67;53.20;100924.72;5015527;28;20018;-47
2022/04/22 06:11:29;;;;;;;21.55;9.88;;;;;;;17.54;50.33;100923.31;4993924;28;20091;-46
2022/04/22 06:13:55;;;;;;;22.20;10.05;;;;;;;19.33;46.91;100916.81;5016466;28;20128;-47
2022/04/22 06:16:20;;;;;;;16.90;10.10;;;;;;;19.52;45.31;100921.75;4998917;28;20457;-47
2022/04/22 06:18:46;;;;;;;17.92;9.75;;;;;;;20.03;44.08;100917.94;5016685;28;20101;-47
2022/04/22 06:21:11;;;;;;;18.67;9.80;;;;;;;19.16;46.16;100911.59;5016575;28;20033;-46
2022/04/22 06:23:36;;;;;;;22.75;10.02;;;;;;;18.53;47.47;100915.31;5016294;28;20469;-45
2022/04/22 06:26:01;;;;;;;20.55;9.77;;;;;;;19.32;45.35;100915.19;5016438;28;20072;-46
2022/04/22 06:28:27;;;;;;;20.10;9.55;;;;;;;20.00;44.16;100915.00;5016487;28;20036;-47
2022/04/22 06:30:52;;;;;;;15.68;9.07;;;;;;;18.97;45.86;100915.50;5016420;28;20385;-47
2022/04/22 06:33:18;;;;;;;19.67;9.75;;;;;;;19.28;45.33;100910.69;5016145;28;20061;-45
2022/04/22 06:35:44;;;;;;;19.75;9.45;;;;;;;19.79;44.10;100913.97;5015027;28;20435;-45
2022/04/22 06:38:14;;;;;;;16.88;9.25;;;;;;;20.07;44.04;100915.59;5016057;28;20076;-46
2022/04/22 06:46:09;;;;;;;16.58;9.48;;;;;;;19.33;46.19;100897.66;5015845;28;20032;-45
2022/04/22 06:48:35;;;;;;;14.20;8.85;;;;;;;20.88;42.21;100902.41;5015509;28;20492;-46
2022/04/22 06:51:02;;;;;;;13.85;9.07;;;;;;;20.23;43.43;100901.59;5014307;28;20100;-44
2022/04/22 06:53:28;;;;;;;17.63;9.32;;;;;;;21.19;41.91;100898.13;5013911;28;20033;-45
2022/04/22 06:55:55;;;;;;;16.65;8.93;;;;;;;20.15;42.78;100896.78;5014553;28;20033;-45
2022/04/22 06:58:21;;;;;;;16.33;8.55;;;;;;;20.19;42.57;100897.09;5014573;28;20115;-45
2022/04/22 07:00:47;;;;;;;14.63;9.43;;;;;;;20.98;41.39;100898.28;5013696;28;20034;-45
2022/04/22 07:03:16;;;;;;;17.77;9.00;;;;;;;21.51;40.37;100894.63;5015783;28;20072;-46
2022/04/22 07:05:43;;;;;;;16.17;8.40;;;;;;;21.69;39.49;100900.47;5015400;28;20026;-46
2022/04/22 07:08:13;;;;;;;14.52;8.80;;;;;;;22.42;38.35;100887.25;5015402;28;20088;-46
2022/04/22 07:10:39;;;;;;;16.60;8.90;;;;;;;21.75;40.03;100887.13;5014887;28;20026;-46
2022/04/22 07:13:05;;;;;;;17.50;8.90;;;;;;;20.68;40.31;100895.16;5015310;28;20492;-41
2022/04/22 07:15:30;;;;;;;17.20;9.05;;;;;;;19.00;45.29;100891.44;5015325;28;20034;-41
2022/04/22 07:17:56;;;;;;;14.43;8.65;;;;;;;19.47;44.30;100885.00;5013750;28;20018;-42
2022/04/22 07:20:22;;;;;;;21.70;8.50;;;;;;;20.88;41.20;100886.66;5015154;28;20033;-39
2022/04/22 07:22:48;;;;;;;15.68;9.07;;;;;;;20.81;41.97;100885.31;5015343;28;20030;-42
2022/04/22 07:25:15;;;;;;;14.30;8.65;;;;;;;22.42;38.32;100881.97;5015212;28;20040;-41
2022/04/22 07:27:42;;;;;;;15.45;8.13;;;;;;;22.58;37.37;100880.91;4997611;28;20029;-42
2022/04/22 07:30:10;;;;;;;13.43;8.23;;;;;;;22.43;37.75;100886.19;5014977;28;20030;-42
2022/04/22 07:32:39;;;;;;;13.13;8.18;;;;;;;21.85;38.10;100876.59;5014937;28;20026;-41
2022/04/22 07:35:11;;;;;;;12.77;7.82;;;;;;;21.97;38.20;100875.56;5014495;28;20176;-42
2022/04/22 07:37:37;;;;;;;;;;;;;;;21.96;38.18;100881.91;5015764;28;20040;-41
2022/04/22 07:40:02;;;;;;;12.55;7.72;;;;;;;22.68;37.28;100874.84;5015080;28;19909;-43
2022/04/22 07:42:29;;;;;;;15.63;7.97;;;;;;;21.48;38.83;100874.13;5014791;28;20477;-42
2022/04/22 07:47:42;;;;;;;13.13;8.10;;;;;;;22.57;37.12;100868.78;5015200;28;20385;-43
2022/04/22 07:50:08;;;;;;;13.38;7.38;;;;;;;23.31;36.74;100869.97;5014962;28;20536;-42
2022/04/22 07:52:36;;;;;;;14.52;7.85;;;;;;;21.15;39.19;100886.56;5015058;28;20104;-41
2022/04/22 07:55:02;;;;;;;14.98;7.93;;;;;;;21.24;40.01;100870.31;4998027;28;20033;-42
2022/04/22 07:57:28;;;;;;;14.27;8.05;;;;;;;20.91;39.75;100874.84;4997394;28;20469;-43
2022/04/22 07:59:54;;;;;;;15.88;8.30;;;;;;;18.76;45.05;100877.75;5015231;28;20041;-41
2022/04/22 08:02:19;;;;;;;15.25;8.15;;;;;;;20.14;43.04;100876.84;5013686;28;20025;-41
2022/04/22 08:04:45;;;;;;;15.68;8.63;;;;;;;21.19;40.29;100863.19;5013125;28;20027;-42
2022/04/22 08:07:10;;;;;;;18.58;7.88;;;;;;;21.35;40.06;100870.09;5012241;28;20034;-42
2022/04/22 08:09:35;;;;;;;15.73;7.88;;;;;;;19.32;43.92;100875.09;5014353;28;20025;-43
2022/04/22 08:12:02;;;;;;;15.60;7.45;;;;;;;18.97;43.71;100864.94;5013722;28;20026;-42
2022/04/22 08:14:28;;;;;;;15.05;7.78;;;;;;;18.27;45.85;100859.13;4996595;28;20061;-43
2022/04/22 08:16:56;;;;;;;15.80;8.00;;;;;;;18.98;44.73;100867.31;5013971;28;20021;-42
2022/04/22 08:19:21;;;;;;;13.18;7.57;;;;;;;18.22;47.06;100878.13;5013227;28;20037;-42
2022/04/22 08:21:47;;;;;;;12.98;7.90;;;;;;;18.24;47.36;100870.03;5013037;28;20026;-42
2022/04/22 08:24:12;;;;;;;19.35;8.15;;;;;;;16.79;50.48;100869.97;5014208;28;20446;-43
2022/04/22 08:26:38;;;;;;;14.80;7.60;;;;;;;17.50;49.26;100875.97;4995647;28;20024;-42
2022/04/22 08:29:04;;;;;;;12.45;7.80;;;;;;;16.67;50.75;100862.09;5013137;28;20133;-43
2022/04/22 08:31:29;;;;;;;14.32;7.85;;;;;;;17.57;49.31;100866.16;5012887;28;20571;-42
2022/04/22 08:33:58;;;;;;;13.30;7.53;;;;;;;16.87;49.54;100872.25;5014260;28;20030;-41
2022/04/22 08:36:26;;;;;;;13.27;6.93;;;;;;;16.12;52.73;100854.50;5014710;28;20033;-42
2022/04/22 08:38:51;;;;;;;13.82;7.90;;;;;;;16.38;51.50;100863.75;4996186;28;20033;-41
2022/04/22 08:41:17;;;;;;;16.67;8.00;;;;;;;18.09;48.69;100857.50;5014160;28;20022;-42
2022/04/22 08:43:42;;;;;;;17.85;7.63;;;;;;;18.75;47.21;100852.59;5013852;28;20025;-42
2022/04/22 08:49:58;;;;;;;13.52;7.28;;;;;;;19.48;45.15;100852.50;5014008;28;20022;-43
2022/04/22 08:51:40;;;;;;;12.70;7.03;;;;;;;19.21;46.02;100850.59;5014075;28;20052;-42
2022/04/22 08:54:09;;;;;;;18.50;7.30;;;;;;;17.86;47.73;100855.78;5013848;28;20487;-41
2022/04/22 08:56:35;;;;;;;12.95;7.07;;;;;;;17.60;49.18;100847.41;5012030;28;20032;-41
2022/04/22 08:59:01;;;;;;;13.57;6.80;;;;;;;18.44;47.60;100841.63;4994588;28;20030;-41
2022/04/22 09:01:27;;;;;;;11.43;6.65;;;;;;;18.43;46.58;100847.88;5012468;28;20517;-41
2022/04/22 09:03:52;;;;;;;12.32;7.32;;;;;;;17.95;47.14;100846.56;5010766;28;20120;-42
2022/04/22 09:06:20;;;;;;;11.43;7.07;;;;;;;17.85;47.06;100843.75;5012182;28;20041;-42
2022/04/22 09:08:46;;;;;;;11.85;6.93;;;;;;;17.98;47.00;100840.03;5012235;28;20097;-41
2022/04/22 09:11:12;;;;;;;11.55;6.90;;;;;;;18.47;47.94;100837.72;5012120;28;20041;-42
2022/04/22 09:13:37;;;;;;;16.08;6.65;;;;;;;20.39;43.93;100820.38;5013682;28;20076;-43
2022/04/22 09:16:02;;;;;;;14.10;7.03;;;;;;;19.72;43.41;100826.84;5012502;28;20437;-43
2022/04/22 09:18:29;;;;;;;10.98;6.80;;;;;;;19.99;42.89;100829.47;5012731;28;20032;-42
2022/04/22 09:21:02;;;;;;;17.90;7.32;;;;;;;20.22;43.71;100821.28;5016250;28;20045;-41
2022/04/22 09:23:35;;;;;;;10.38;6.28;;;;;;;19.51;43.23;100825.81;5018144;28;20037;-41
2022/04/22 09:26:03;;;;;;;11.73;6.57;;;;;;;19.53;44.01;100808.00;5017436;28;20018;-41
2022/04/22 09:28:29;;;;;;;11.18;6.47;;;;;;;19.05;44.46;100804.31;5017402;28;20028;-41
2022/04/22 09:30:57;;;;;;;10.95;6.47;;;;;;;18.20;46.52;100804.34;5017396;28;20022;-41
2022/04/22 09:33:22;;;;;;;15.45;6.60;;;;;;;19.23;45.04;100805.84;5017613;28;20504;-43
2022/04/22 09:44:22;;;;;;;10.00;6.10;;;;;;;19.59;42.84;100794.72;5017898;28;20200;-41
2022/04/22 09:46:48;;;;;;;12.40;5.88;;;;;;;20.72;41.66;100788.59;5017413;28;20350;-39
2022/04/22 09:49:14;;;;;;;11.77;6.25;;;;;;;20.02;42.57;100795.69;5017102;28;20040;-41
2022/04/22 09:51:40;;;;;;;10.75;5.88;;;;;;;20.35;41.84;100795.69;5016927;28;20513;-41
2022/04/22 09:54:10;;;;;;;11.18;6.00;;;;;;;18.44;45.91;100791.91;5017323;28;20064;-41
2022/04/22 09:56:37;;;;;;;11.02;6.13;;;;;;;17.37;47.94;100801.25;5016831;28;20083;-37
2022/04/22 09:59:26;;;;;;;10.52;6.15;;;;;;;19.55;44.74;100785.75;5016803;28;20030;-41
2022/04/22 10:01:52;;;;;;;9.50;5.70;;;;;;;19.91;42.72;100773.03;5017069;28;20030;-41
2022/04/22 10:04:19;;;;;;;11.75;5.57;;;;;;;19.61;44.22;100781.34;5016737;28;20056;-43
2022/04/22 10:06:45;;;;;;;10.35;5.60;;;;;;;20.61;41.39;100781.72;5016690;28;20428;-41
2022/04/22 10:09:11;;;;;;;10.30;5.70;;;;;;;21.15;40.70;100783.31;5016792;28;20060;-41
2022/04/22 10:11:38;;;;;;;9.63;5.80;;;;;;;19.68;43.07;100787.25;5016507;28;20377;-41
2022/04/22 10:14:09;;;;;;;14.02;5.80;;;;;;;20.35;40.98;100777.31;5016411;28;20177;-42
2022/04/22 10:16:35;;;;;;;10.45;5.60;;;;;;;21.19;40.28;100785.13;5016848;28;20030;-41
2022/04/22 10:19:01;;;;;;;8.55;5.50;;;;;;;20.18;42.46;100777.44;5016964;28;20480;-41
2022/04/22 10:21:27;;;;;;;11.90;5.10;;;;;;;19.48;43.06;100779.13;5016342;28;20104;-40
2022/04/22 10:23:56;;;;;;;11.52;4.88;;;;;;;19.70;42.70;100761.56;5016479;28;20121;-41
2022/04/22 10:26:21;;;;;;;10.95;5.43;;;;;;;20.17;41.90;100754.84;5016579;28;20021;-42
2022/04/22 10:28:47;;;;;;;10.02;5.50;;;;;;;20.96;40.59;100756.69;5016141;28;20092;-41
2022/04/22 10:31:13;;;;;;;8.38;4.85;;;;;;;21.27;40.14;100754.94;5015994;28;20025;-41
2022/04/22 10:33:43;;;;;;;8.55;5.10;;;;;;;19.81;41.59;100757.19;5016216;28;20045;-37
2022/04/22 10:36:12;;;;;;;8.23;5.47;;;;;;;19.51;41.88;100763.72;4998468;28;20025;-37
2022/04/22 10:38:39;;;;;;;7.30;5.07;;;;;;;19.15;43.32;100754.66;5016608;28;20022;-43
2022/04/22 10:41:16;;;;;;;8.73;5.57;;;;;;;20.31;41.75;100749.97;5014908;28;20056;-41
2022/04/22 10:43:42;;;;;;;9.43;5.32;;;;;;;20.55;40.60;100748.59;5014657;28;20066;-41
2022/04/22 10:49:15;;;;;;;10.07;5.68;;;;;;;20.23;41.61;100748.63;5014779;28;20070;-42
2022/04/22 10:52:09;;;;;;;8.03;4.97;;;;;;;20.84;40.90;100753.47;4980839;28;20036;-41
2022/04/22 10:54:52;;;;;;;14.32;5.20;;;;;;;19.97;40.35;100764.19;5014612;28;20119;-40
2022/04/22 10:57:20;;;;;;;10.85;4.50;;;;;;;21.43;39.11;100757.63;5015516;28;20034;-43
2022/04/22 11:00:00;;;;;;;9.05;4.25;;;;;;;20.33;39.17;100753.16;5015913;28;20052;-40
2022/04/22 11:02:28;;;;;;;8.65;4.28;;;;;;;20.24;38.52;100756.25;5015639;28;20419;-39
2022/04/22 11:05:22;;;;;;;8.45;4.50;;;;;;;19.62;40.45;100741.00;5015787;28;20025;-45
2022/04/22 11:07:51;;;;;;;7.65;3.95;;;;;;;19.94;38.41;100748.13;5015957;28;20148;-42
2022/04/22 11:10:26;;;;;;;7.30;3.90;;;;;;;19.59;38.75;100751.97;4997390;28;20029;-42
2022/04/22 11:12:54;;;;;;;9.57;4.00;;;;;;;20.33;36.25;100725.06;5015486;28;20026;-40
2022/04/22 11:15:47;;;;;;;8.00;3.65;;;;;;;20.94;34.45;100740.38;5015399;28;20022;-41
2022/04/22 11:18:14;;;;;;;8.50;3.42;;;;;;;21.14;34.53;100732.56;5012866;28;20472;-41
2022/04/22 11:20:51;;;;;;;7.32;3.70;;;;;;;20.18;34.43;100719.72;5015270;28;20106;-41
2022/04/22 11:23:16;;;;;;;12.60;3.38;;;;;;;20.76;33.46;100739.00;5015477;28;20026;-41
2022/04/22 11:25:43;;;;;;;5.70;3.58;;;;;;;18.56;36.65;100738.69;5015552;28;20548;-33
2022/04/22 11:28:09;;;;;;;5.07;3.20;;;;;;;19.83;35.46;100719.22;5015276;28;20469;-41
2022/04/22 11:30:35;;;;;;;8.02;3.00;;;;;;;21.22;34.05;100702.38;4997387;28;20065;-40
2022/04/22 11:33:23;;;;;;;9.02;3.05;;;;;;;20.59;32.86;100709.50;5015020;28;20028;-40
2022/04/22 11:35:53;;;;;;;6.32;3.08;;;;;;;21.13;32.56;100701.31;5013559;28;20029;-40
2022/04/22 11:38:19;;;;;;;5.55;3.00;;;;;;;20.48;32.71;100698.13;4997510;28;20026;-40
2022/04/22 11:40:48;;;;;;;8.05;3.25;;;;;;;19.56;34.71;100695.63;5015340;28;20534;-41
2022/04/22 11:43:18;;;;;;;5.75;3.10;;;;;;;20.29;33.40;100695.16;5013240;28;20029;-39
2022/04/22 11:45:45;;;;;;;6.03;3.08;;;;;;;20.84;34.39;100693.06;5015053;28;20018;-41
2022/04/22 11:48:12;;;;;;;6.63;2.83;;;;;;;20.31;33.33;100687.00;5014993;28;20408;-41
2022/04/22 11:50:42;;;;;;;12.70;3.42;;;;;;;20.27;33.61;100689.34;5015297;28;20381;-41
2022/04/22 11:53:17;;;;;;;5.10;3.05;;;;;;;19.76;34.66;100687.16;5015174;28;20410;-41
2022/04/22 11:55:43;;;;;;;6.60;3.10;;;;;;;20.63;33.36;100674.63;4997029;28;20389;-41
2022/04/22 11:58:13;;;;;;;9.45;2.65;;;;;;;21.70;33.35;100684.59;5014724;28;20022;-42
2022/04/22 12:06:12;;;;;;;6.20;2.97;;;;;;;20.21;33.66;100662.28;5014751;28;20068;-41
2022/04/22 12:08:50;;;;;;;6.43;2.90;;;;;;;21.45;31.52;100656.44;5015074;28;20060;-41
2022/04/22 12:11:18;;;;;;;4.78;2.88;;;;;;;20.60;32.78;100674.31;5014720;28;20460;-42
2022/04/22 12:13:45;;;;;;;5.25;2.90;;;;;;;21.38;32.20;100658.56;5014203;28;20492;-42
2022/04/22 12:16:11;;;;;;;10.00;3.22;;;;;;;21.56;31.76;100665.13;5014496;28;20032;-42
2022/04/22 12:18:37;;;;;;;9.10;3.00;;;;;;;22.29;31.25;100659.53;5014136;28;20025;-42
2022/04/22 12:21:04;;;;;;;5.85;3.20;;;;;;;22.04;30.41;100655.09;5014212;28;20030;-43